Weather observations for the past three days for
Dodge Center Airport
Metric (Imperial)
Date Time (cdt) Wind (kph) Vis. (km) Weather Sky Cond. Temperature (ºC) Relative Humidity Wind Chill (°C) Heat Index (°C) Pressure Precipitation (cm)
Air Dwpt 6 hour altimeter (cm) sea level (mb) 1 hr 3 hr 6 hr
Max. Min.
10 09:55 NW 19 16.09 Mostly Cloudy BKN090 12 -1.5 39% 76.45 0.0
10 09:35 NW 19 16.09 Mostly Cloudy BKN090 11 -2.2 40% 76.45 0.0
10 09:15 NW 19 16.09 Partly Cloudy SCT090 11.7 -1.8 39% 76.45 0.0
10 08:55 NW 17 16.09 Partly Cloudy SCT095 10.3 -1.6 44% 76.45 0.0
10 08:35 NW 13 16.09 Partly Cloudy SCT095 9.7 -1.7 45% 8 76.45 0.0
10 08:15 NW 19 16.09 Partly Cloudy SCT095 8.5 -1.7 49% 6 76.43 0.0
10 07:55 W 15 16.09 Partly Cloudy SCT095 7.6 -1.3 54% 5 76.4 0.0
10 07:35 W 13 16.09 Overcast OVC095 6.5 -1.4 57% 4 76.4 0.0
10 07:15 W 13 16.09 Overcast OVC095 5.2 -1.4 63% 3 76.38 0.0
10 06:55 W 13 16.09 Mostly Cloudy BKN090 3 -2.3 6.2 -0.5 68% 0 76.38 0.0
10 06:35 W 11 16.09 Partly Cloudy SCT090 1.8 -2.3 75% -1 76.38 0.0
10 06:15 SW 13 16.09 Fair CLR 0.7 -3.5 74% -3 76.35 0.0
10 05:55 SW 11 16.09 Mostly Cloudy BKN090 0.4 -3.2 77% -3 76.35 0.0
10 05:35 W 11 16.09 Partly Cloudy SCT090 0.2 -4.3 72% -3 76.35 0.0
10 05:15 W 13 16.09 Fair CLR 0.3 -3.6 75% -3 76.33 0.0
10 04:55 W 11 16.09 Fair CLR 0.6 -3.5 74% -2 76.3 0.0
10 04:35 W 13 16.09 Fair CLR 1.1 -3.4 72% -2 76.28 0.0
10 04:15 W 11 16.09 Fair CLR -0.5 -4.1 77% -4 76.28 0.0
10 03:55 W 7 16.09 Fair CLR 2.6 -3.6 64% 1 76.25 0.0
10 03:35 W 9 16.09 Fair CLR 1.9 -3.4 68% -1 76.25 0.0
10 03:15 W 9 16.09 Fair CLR 1.8 -4 66% -1 76.23 0.0
10 02:55 W 7 16.09 Fair CLR 1.7 -4 66% -0 76.2 0.0
10 02:35 W 11 16.09 Fair CLR 1.5 -3.7 69% -1 76.2 0.0
10 02:15 W 7 16.09 Fair CLR 4.2 -3 60% 3 76.2 0.0
10 01:55 NW 11 16.09 Fair CLR 5.2 -3.3 55% 3 76.2 0.0
10 01:35 NW 11 16.09 Fair CLR 5.3 -3.3 54% 3 76.2 0.0
10 01:15 NW 13 16.09 Fair CLR 6 -3.4 51% 4 76.2 0.0
10 00:55 NW 13 16.09 Fair CLR 6.8 -3.4 13.6 6.8 49% 5 76.2 0.0
10 00:35 NW 17 16.09 Fair CLR 7.3 -3.5 47% 5 76.15 0.0
10 00:15 NW 19 16.09 Fair CLR 7.5 -3.6 46% 5 76.15 0.0
09 23:55 NW 13 16.09 Fair CLR 7.3 -3.6 46% 5 76.12 0.0
09 23:35 NW 11 16.09 Fair CLR 7.5 -3.7 45% 6 76.12 0.0
09 23:15 NW 13 16.09 Fair CLR 7.7 -3.9 44% 6 76.1 0.0
09 22:55 NW 13 16.09 Fair CLR 8.1 -4.1 42% 6 76.1 0.0
09 22:35 NW 11 16.09 Fair CLR 7.9 -3.9 43% 6 76.07 0.0
09 22:15 NW 13 16.09 Fair CLR 8.2 -4.1 42% 6 76.07 0.0
09 21:55 NW 13 16.09 Fair CLR 8.3 -3.9 42% 6 76.05 0.0
09 21:35 NW 13 16.09 Fair CLR 8.4 -3.9 42% 7 76 0.0
09 21:15 NW 13 16.09 Fair CLR 9 -3.8 41% 7 75.97 0.0
09 20:55 NW 13 14.48 Fair CLR 10 -4.1 37% 8 75.95 0.0
09 20:35 NW 15 14.48 Fair CLR 10.6 -4.5 35% 75.92 0.0
09 20:15 N 17 14.48 Fair CLR 11.5 -5 31% 75.9 0.0
09 19:55 NW 24 16.09 Fair CLR 12.7 -4.7 30% 75.87 0.0
09 19:35 NW 24 16.09 Fair CLR 13 -4.7 29% 75.84 0.0
09 19:15 NW 28 16.09 Fair CLR 13.5 -5 28% 75.82 0.0
09 18:55 N 24 G 37 16.09 Fair CLR 13.4 -5.5 16.1 13.4 27% 75.82 0.0
09 18:35 NW 28 G 35 16.09 Fair CLR 14.1 -4.4 28% 75.79 0.0
09 18:15 NW 26 G 39 16.09 Fair CLR 14.2 -4.5 27% 75.77 0.0
09 17:55 NW 28 G 37 16.09 Fair CLR 14.6 -3.7 28% 75.74 0.0
09 17:35 N 31 16.09 Fair CLR 14.7 -3.8 28% 75.74 0.0
09 17:15 N 26 G 35 16.09 Fair CLR 14.9 -4.1 27% 75.72 0.0
09 16:55 N 30 G 43 16.09 Fair CLR 15.3 -3.4 28% 75.69 0.0
09 16:35 N 35 G 46 16.09 Fair and Breezy CLR 15.2 -4.1 26% 75.69 0.0
09 16:15 N 31 G 43 16.09 Fair CLR 15.4 -3.2 28% 75.69 0.0
09 15:55 NW 24 G 39 16.09 Fair CLR 15.5 -1.6 31% 75.67 0.0
09 15:35 N 33 G 46 16.09 Fair and Breezy CLR 15.6 -2.4 29% 75.67 0.0
09 15:15 N 26 G 48 16.09 Fair CLR 15.5 -2.2 30% 75.64 0.0
09 14:55 N 35 G 46 16.09 Fair and Breezy CLR 15.6 -2.1 30% 75.62 0.0
09 14:35 NW 33 G 46 16.09 Fair and Breezy CLR 15.9 -1.7 30% 75.62 0.0
09 14:15 NW 35 G 52 16.09 Fair and Breezy CLR 15.5 -1.5 31% 75.62 0.0
09 13:55 NW 28 G 44 16.09 Fair CLR 15.5 -0.5 34% 75.59 0.0
09 13:35 N 24 G 44 16.09 A Few Clouds FEW360 15.1 -0.8 34% 75.59 0.0
09 13:15 NW 31 16.09 A Few Clouds FEW070 15.3 0.3 36% 75.59 0.0
09 12:55 NW 33 G 44 16.09 Fair and Breezy CLR 15 0.3 15 9.2 37% 75.57 0.0
09 12:35 NW 31 G 46 16.09 Fair CLR 14.6 0.4 38% 75.57 0.0
09 12:15 NW 30 G 43 16.09 A Few Clouds FEW050 14.6 1.2 40% 75.54 0.0
09 11:55 N 28 16.09 Mostly Cloudy BKN049 14.2 2.2 45% 75.54 0.0
09 11:35 NW 28 G 41 16.09 Mostly Cloudy BKN047 14 2.7 47% 75.54 0.0
09 11:15 N 30 G 41 16.09 Mostly Cloudy SCT043 BKN050 13.5 3.1 50% 75.54 0.0
09 10:55 NW 30 G 37 16.09 Mostly Cloudy BKN041 12.6 3.6 55% 75.51 0.0
09 10:35 N 31 G 41 16.09 Overcast BKN039 OVC046 12.9 4.4 57% 75.49 0.0
09 10:15 NW 31 G 39 16.09 Mostly Cloudy BKN035 BKN046 12.8 5.2 60% 75.46 0.0
09 09:55 NW 30 G 41 16.09 Mostly Cloudy BKN034 12.3 5.1 62% 75.44 0.0
09 09:35 NW 31 G 46 16.09 Mostly Cloudy BKN032 12.8 5.8 63% 75.41 0.0
09 09:15 NW 26 G 41 16.09 Mostly Cloudy BKN028 BKN034 12.3 6.2 67% 75.39 0.0
09 08:55 NW 33 G 44 16.09 Overcast and Breezy BKN028 BKN075 OVC090 11.9 6.4 69% 75.36 0.0
09 08:35 NW 22 16.09 Mostly Cloudy FEW030 BKN075 BKN095 12.5 5.8 64% 75.36 0.0
09 08:15 NW 20 G 33 14.48 Overcast OVC070 11.5 5.1 65% 75.34 0.0
09 07:55 NW 20 14.48 Overcast BKN070 OVC085 11.1 4.7 65% 75.34 0.0
09 07:35 NW 19 11.27 Light Rain BKN065 OVC090 10.8 3.9 63% 75.31 0.0
09 07:15 NW 9 14.48 Overcast SCT075 OVC100 9.8 1.4 56% 9 75.31 0.0
09 06:55 NW 7 14.48 Overcast BKN085 OVC110 9.4 0.6 11.4 4.9 55% 9 75.26 0.0
09 06:35 NW 15 14.48 Overcast BKN090 OVC110 9.3 0 53% 7 75.31 0.0
09 06:15 NW 11 14.48 Mostly Cloudy BKN100 8.9 -0.1 54% 7 75.26 0.0
09 05:55 NW 15 16.09 Mostly Cloudy BKN100 9.1 -0.5 51% 7 75.26 0.0
09 05:35 NW 19 16.09 Overcast OVC100 8.6 -0.3 54% 6 75.23 0.0
09 05:15 SW 11 16.09 Overcast OVC100 8.1 0.1 57% 6 75.18 0.0
09 04:55 SW 11 16.09 Mostly Cloudy BKN100 BKN150 6.7 0.2 64% 5 75.18 0.0
09 04:35 SW 13 16.09 Mostly Cloudy SCT095 BKN140 BKN160 6.4 -0.2 63% 4 75.18 0.0
09 04:15 SW 13 16.09 Fair CLR 5.3 -0.6 66% 3 75.18 0.0
09 03:55 SW 13 16.09 Partly Cloudy SCT110 6.2 -1.3 59% 4 75.18 0.0
09 03:35 SW 13 16.09 Mostly Cloudy BKN110 6.6 -0.6 60% 4 75.18 0.0
09 03:15 SW 11 16.09 Fair CLR 5.3 -1.1 64% 3 75.16 0.0
09 02:55 SW 9 14.48 Fair CLR 5.3 -1.5 62% 3 75.18 0.0
09 02:35 SW 11 16.09 Fair CLR 5.4 -2 59% 3 75.21 0.0
09 02:15 W 11 16.09 Fair CLR 7.5 -1.1 55% 6 75.23 0.0
09 01:55 W 9 16.09 Fair CLR 8.9 -1.5 48% 8 75.23 0.0
09 01:35 W 7 16.09 Fair CLR 10.3 -1.6 44% 75.23 0.0
09 01:15 NW 11 16.09 Fair CLR 11 -1.4 42% 75.26 0.0
09 00:55 NW 11 16.09 Fair CLR 11.3 -0.9 20.2 11.3 43% 75.26 0.0
09 00:35 NW 15 16.09 Fair CLR 12.4 -1.2 39% 75.26 0.0
09 00:15 NW 15 16.09 Fair CLR 12.4 -1 40% 75.26 0.0
08 23:55 NW 15 16.09 Fair CLR 13.1 -1.1 38% 75.26 0.0
08 23:35 NW 15 16.09 Fair CLR 13.2 -1.3 37% 75.26 0.0
08 23:15 NW 15 16.09 Fair CLR 13.6 -1.3 36% 75.26 0.0
08 22:55 NW 15 16.09 Fair CLR 14.1 -1.2 35% 75.26 0.0
08 22:35 NW 15 16.09 Fair CLR 14.9 -1.4 33% 75.26 0.0
08 22:15 NW 15 16.09 Fair CLR 14.5 -0.8 35% 75.23 0.0
08 21:55 NW 13 16.09 Fair CLR 14.9 -0.6 35% 75.23 0.0
08 21:35 NW 13 16.09 Fair CLR 15.2 -0.4 35% 75.21 0.0
08 21:15 NW 15 16.09 Fair CLR 16.1 -0.7 32% 75.18 0.0
08 20:55 NW 15 16.09 Fair CLR 17.2 -0.7 30% 75.18 0.0
08 20:35 NW 19 16.09 A Few Clouds FEW100 18 -1.1 28% 75.16 0.0
08 20:15 W 19 16.09 Partly Cloudy SCT110 18.7 -1 27% 75.16 0.0
08 19:55 NW 24 16.09 Partly Cloudy SCT100 19.6 -0.7 26% 75.16 0.0
08 19:35 W 26 G 33 16.09 Mostly Cloudy BKN100 BKN130 20 0.7 28% 75.13 0.0
08 19:15 NW 22 14.48 Mostly Cloudy SCT100 BKN130 20.1 0.3 27% 75.13 0.0
08 18:55 NW 19 16.09 Overcast FEW060 OVC100 20.1 -0.7 21.7 19.6 25% 75.16 0.0
08 18:35 NW 22 G 35 16.09 Mostly Cloudy BKN100 BKN140 20.4 -0.3 25% 75.16 0.0
08 18:15 NW 26 G 39 16.09 Mostly Cloudy BKN120 20.9 -0.5 24% 75.16 0.0
08 17:55 W 35 16.09 Overcast and Breezy BKN110 OVC130 20.9 -0.9 23% 75.18 0.0
08 17:15 W 33 G 46 16.09 Mostly Cloudy and Breezy BKN110 21.7 0 24% 75.21 0.0
08 16:55 W 30 16.09 Overcast OVC110 20.2 -1.4 23% 75.21 0.0
08 16:35 W 20 16.09 Overcast OVC110 20.6 -1.3 23% 75.23 0.0
08 16:15 W 28 G 39 16.09 Overcast BKN110 OVC130 21 -1.4 22% 75.26 0.0
08 15:55 W 26 16.09 Overcast OVC100 19.9 -2.2 23% 75.29 0.0
08 15:35 W 22 16.09 Overcast BKN100 OVC130 19.9 -1.9 23% 75.29 0.0
08 15:15 NW 28 G 41 16.09 Overcast BKN110 OVC130 20.2 -1.9 23% 75.31 0.0
08 14:55 W 26 G 44 16.09 Mostly Cloudy SCT110 BKN130 21.4 -1.1 22% 75.34 0.0
08 14:35 W 20 G 31 16.09 Partly Cloudy SCT110 19.8 -1.8 23% 75.34 0.0
08 14:15 NW 20 G 33 16.09 A Few Clouds FEW350 20.4 -0.8 24% 75.36 0.0
08 13:55 W 24 G 31 16.09 Fair CLR 20.8 -0.4 24% 75.39 0.0
08 13:35 NW 20 G 35 16.09 Fair CLR 20.3 -1.4 23% 75.39 0.0
08 13:15 NW 26 16.09 A Few Clouds FEW100 19.9 -1.8 23% 75.41 0.0
08 12:55 W 20 16.09 Mostly Cloudy BKN100 18.2 -3.1 19.5 6.6 23% 75.46 0.0
08 12:35 W 28 G 35 16.09 Mostly Cloudy BKN100 18.8 -2.6 23% 75.49 0.0
08 12:15 W 26 16.09 Mostly Cloudy BKN100 18.3 -3.6 22% 75.51 0.0
08 11:55 W 26 G 35 16.09 Mostly Cloudy BKN100 BKN120 19 -1.7 25% 75.54 0.0
08 11:35 SW 19 14.48 Mostly Cloudy SCT100 BKN120 17.2 -1.9 27% 75.54 0.0
08 11:15 W 33 G 43 16.09 Overcast and Breezy BKN100 OVC130 17.9 -1.8 26% 75.57 0.0
08 10:55 SW 24 G 37 16.09 Overcast OVC100 16.8 -2 28% 75.57 0.0
08 10:35 SW 30 G 37 16.09 Overcast BKN110 OVC130 16.5 -2 28% 75.59 0.0
08 10:15 SW 26 16.09 Overcast BKN100 OVC120 16 -2.1 29% 75.59 0.0
08 09:55 SW 24 G 37 16.09 Mostly Cloudy BKN110 15 -2.3 31% 75.62 0.0
08 09:35 SW 28 16.09 Mostly Cloudy BKN110 14.1 -3 31% 75.64 0.0
08 09:15 SW 28 16.09 Fair CLR 13.2 -3.3 32% 75.64 0.0
08 08:55 SW 20 G 37 16.09 Fair CLR 11.8 -3.6 34% 75.67 0.0
08 08:35 SW 30 16.09 Fair CLR 11 -3.9 35% 75.67 0.0
08 08:15 SW 24 16.09 Fair CLR 10.6 -4.2 35% 75.67 0.0
08 07:55 SW 22 16.09 Fair CLR 9.7 -4.2 38% 7 75.67 0.0
08 07:35 SW 22 16.09 Fair CLR 9 -4.2 39% 6 75.67 0.0
08 07:15 SW 24 16.09 Fair CLR 7.8 -4.5 42% 5 75.67 0.0
08 06:55 SW 20 16.09 Fair CLR 5.8 -5.1 5.8 0.8 46% 2 75.64 0.0
08 06:35 SW 15 16.09 Fair CLR 4.9 -5.4 48% 2 75.64 0.0
08 06:15 SW 19 16.09 Fair CLR 4.8 -5.7 47% 1 75.64 0.0
08 05:55 S 19 14.48 Fair CLR 4.2 -5.8 49% 1 75.64 0.0
08 05:35 SW 19 14.48 Fair CLR 4.8 -6.1 46% 1 75.64 0.0
08 05:15 S 22 16.09 Fair CLR 5.3 -6.1 44% 2 75.64 0.0
08 04:55 S 20 16.09 Fair CLR 4.5 -6 47% 1 75.67 0.0
08 04:35 S 19 16.09 Fair CLR 4.1 -6 48% 0 75.67 0.0
08 04:15 S 15 16.09 Fair CLR 2 -5.7 57% -2 75.67 0.0
08 03:55 S 15 16.09 Fair CLR 1 -5.4 63% -3 75.69 0.0
08 03:35 S 9 16.09 Fair CLR 2.1 -6.3 54% -0 75.69 0.0
08 03:15 S 17 16.09 Fair CLR 3.5 -6.5 48% 0 75.69 0.0
08 02:55 S 15 16.09 Fair CLR 2.1 -5.3 58% -1 75.72 0.0
08 02:35 S 15 16.09 Fair CLR 2.1 -6 55% -1 75.72 0.0
08 02:15 S 13 16.09 Fair CLR 2.9 -6.9 49% -0 75.72 0.0
08 01:55 S 15 16.09 Fair CLR 3.3 -7 47% 0 75.72 0.0
08 01:35 S 13 16.09 Fair CLR 3.6 -6.7 47% 1 75.74 0.0
08 01:15 S 17 16.09 Fair CLR 4.5 -6.2 46% 1 75.74 0.0
08 00:55 S 15 16.09 Fair CLR 3.4 -5 13 2.5 55% 0 75.74 0.0
08 00:35 S 17 16.09 Fair CLR 4.1 -5.7 49% 1 75.77 0.0
08 00:15 S 13 11.27 Fair CLR 2.6 -4.9 58% -0 75.77 0.0
07 23:55 S 15 16.09 Fair CLR 3.6 -5.2 53% 0 75.77 0.0
07 23:35 S 11 16.09 Fair CLR 3.1 -5.1 55% 0 75.77 0.0
07 23:15 SE 11 16.09 Fair CLR 5.1 -8.5 37% 3 75.79 0.0
07 22:55 SE 7 16.09 Fair CLR 5.6 -8.3 36% 4 75.79 0.0
07 22:35 E 7 16.09 Fair CLR 6.5 -8 35% 5 75.79 0.0
07 22:15 E 6 16.09 Fair CLR 5.9 -7 39% 75.79 0.0
07 21:55 E 7 16.09 Fair CLR 7.7 -7.8 33% 7 75.77 0.0
07 21:35 E 7 16.09 Fair CLR 7.3 -8.1 33% 6 75.77 0.0
07 21:15 E 6 16.09 Fair CLR 7.5 -7.4 34% 75.77 0.0
07 20:55 E 6 16.09 Fair CLR 10.1 -7.8 28% 75.72 0.0
07 20:35 NE 6 14.48 Fair CLR 11.1 -8 26% 75.72 0.0
07 20:15 N 6 16.09 Fair CLR 11.6 -7.9 25% 75.72 0.0
07 19:55 NW 7 14.48 Fair CLR 11.5 -6 29% 75.72 0.0
07 19:35 N 11 16.09 Fair CLR 12.1 -6.1 28% 75.72 0.0
07 19:15 N 13 16.09 Fair CLR 12.6 -5.6 28% 75.72 0.0
07 18:55 N 15 16.09 Fair CLR 13.1 -6.3 14 11.4 26% 75.72 0.0
07 18:35 NW 15 16.09 Fair CLR 13.3 -6 26% 75.72 0.0
07 18:15 NW 13 16.09 Fair CLR 13.4 -6.6 25% 75.72 0.0
07 17:55 NW 13 16.09 Fair CLR 13.6 -6.6 24% 75.72 0.0
07 17:35 NW 15 16.09 Fair CLR 13.5 -5.7 26% 75.74 0.0
07 17:15 W 22 16.09 Fair CLR 13.7 -6.4 24% 75.74 0.0
07 16:55 W 15 16.09 Fair CLR 14 -6 25% 75.74 0.0
07 16:35 NW 20 G 33 16.09 Fair CLR 13.5 -6.3 25% 75.74 0.0
07 16:15 NW 20 G 28 16.09 Fair CLR 13.8 -5.2 27% 75.74 0.0
07 15:55 NW 19 G 33 16.09 Fair CLR 13.5 -6.4 25% 75.77 0.0
07 15:35 NW 13 16.09 Fair CLR 13.6 -5.7 26% 75.77 0.0
07 15:15 NW 17 16.09 Fair CLR 13.5 -4.9 28% 75.77 0.0
07 14:55 NW 15 G 35 16.09 Fair CLR 12.8 -6.1 26% 75.79 0.0
07 14:35 NW 9 G 30 16.09 Fair CLR 13.1 -5.8 27% 75.79 0.0
07 14:15 NW 26 G 37 16.09 Fair CLR 12.5 -5.9 27% 75.79 0.0
07 13:55 NW 22 G 33 16.09 Fair CLR 12.7 -4.3 31% 75.79 0.0
07 13:35 W 22 16.09 Fair CLR 12.8 -5 29% 75.82 0.0
07 13:15 N 20 G 31 16.09 Fair CLR 12.1 -4.2 32% 75.82 0.0
07 12:55 N 15 16.09 Fair CLR 11.2 -5.7 11.7 2.4 30% 75.84 0.0
07 12:35 NW 22 16.09 Fair CLR 11.5 -5 31% 75.87 0.0
07 12:15 NW 20 16.09 Fair CLR 11.2 -4.7 33% 75.87 0.0
07 11:55 NW 13 G 28 16.09 Fair CLR 10.5 -5.3 33% 75.87 0.0
07 11:35 N 20 G 28 16.09 Fair CLR 10 -5.8 33% 8 75.87 0.0
07 11:15 NW 17 16.09 Fair CLR 9.9 -5.3 34% 8 75.9 0.0
07 10:55 NW 15 16.09 Fair CLR 9.5 -4.6 37% 8 75.9 0.0
07 10:35 NW 19 16.09 Fair CLR 9.6 -4.2 38% 7 75.9 0.0
07 10:15 N 9 16.09 Fair CLR 9.1 -3.8 40% 8 75.9 0.0
Date Time (cdt) Wind (kph) Vis. (km) Weather Sky Cond. Air Dwpt Max. Min. Relative Humidity Wind Chill (°C) Heat Index (°C) altimeter (cm) sea level (mb) 1 hr 3 hr 6 hr
6 hour
Temperature (ºC) Pressure Precipitation (cm)